AAL8501 KBID-KMTP
Flight info
| Callsign | AAL8501 |
|---|---|
| Flight time | 0h 18m |
| Altitude | 12000 |
| Route | DCT |
| Aircraft | B738/M-SDE2E3FGHIRWXY/LB1 |
Departure
| Time | 2026-05-06 16:46 |
|---|---|
| Airport | Block Island State Airport (KBID) |
Arrival
| Time | 2026-05-06 17:04 |
|---|---|
| Airport | Montauk Airport (KMTP) |
| Time | Latitude | Longitude | Altitude | Speed | Heading |
|---|---|---|---|---|---|
| 2026-05-06 16:36 | 41.16879 | -71.58045 | 123 ft | 0 kts | 69° |
| 2026-05-06 16:43 | 41.16880 | -71.58044 | 123 ft | 0 kts | 69° |
| 2026-05-06 16:43 | 41.16888 | -71.57993 | 122 ft | 11 kts | 82° |
| 2026-05-06 16:43 | 41.16891 | -71.57877 | 121 ft | 13 kts | 103° |
| 2026-05-06 16:44 | 41.16882 | -71.57759 | 117 ft | 15 kts | 85° |
| 2026-05-06 16:44 | 41.16880 | -71.57577 | 110 ft | 20 kts | 105° |
| 2026-05-06 16:44 | 41.16840 | -71.57425 | 103 ft | 17 kts | 97° |
| 2026-05-06 16:44 | 41.16840 | -71.57363 | 99 ft | 1 kts | 65° |
| 2026-05-06 16:45 | 41.16845 | -71.57363 | 99 ft | 1 kts | 339° |
| 2026-05-06 16:45 | 41.16846 | -71.57371 | 99 ft | 0 kts | 266° |
| 2026-05-06 16:45 | 41.16827 | -71.57605 | 111 ft | 67 kts | 264° |
| 2026-05-06 16:46 | 41.16761 | -71.58572 | 212 ft | 135 kts | 260° |
| 2026-05-06 16:46 | 41.16714 | -71.59788 | 1042 ft | 137 kts | 260° |
| 2026-05-06 16:46 | 41.16688 | -71.61066 | 1649 ft | 144 kts | 259° |
| 2026-05-06 16:46 | 41.16607 | -71.62423 | 2085 ft | 156 kts | 268° |
| 2026-05-06 16:47 | 41.17162 | -71.63761 | 2464 ft | 186 kts | 312° |
| 2026-05-06 16:47 | 41.18211 | -71.64874 | 2531 ft | 196 kts | 314° |
| 2026-05-06 16:47 | 41.19210 | -71.66071 | 2494 ft | 194 kts | 307° |
| 2026-05-06 16:47 | 41.20186 | -71.67403 | 2510 ft | 210 kts | 304° |
| 2026-05-06 16:48 | 41.21141 | -71.69009 | 2495 ft | 229 kts | 290° |
| 2026-05-06 16:48 | 41.21486 | -71.70938 | 2498 ft | 206 kts | 257° |
| 2026-05-06 16:48 | 41.21070 | -71.72665 | 2499 ft | 191 kts | 236° |
| 2026-05-06 16:48 | 41.20327 | -71.74085 | 2496 ft | 183 kts | 226° |
| 2026-05-06 16:49 | 41.19453 | -71.75324 | 2282 ft | 183 kts | 223° |
| 2026-05-06 16:49 | 41.18586 | -71.76515 | 2118 ft | 177 kts | 224° |
| 2026-05-06 16:49 | 41.17761 | -71.77690 | 1958 ft | 172 kts | 225° |
| 2026-05-06 16:49 | 41.16967 | -71.78829 | 1850 ft | 164 kts | 224° |
| 2026-05-06 16:50 | 41.16207 | -71.79908 | 1682 ft | 159 kts | 224° |
| 2026-05-06 16:50 | 41.15465 | -71.80961 | 1584 ft | 148 kts | 224° |
| 2026-05-06 16:50 | 41.14802 | -71.81911 | 1588 ft | 133 kts | 224° |
| 2026-05-06 16:50 | 41.14216 | -71.82740 | 1605 ft | 113 kts | 223° |
| 2026-05-06 16:51 | 41.13696 | -71.83479 | 1589 ft | 112 kts | 224° |
| 2026-05-06 16:51 | 41.13166 | -71.84235 | 1602 ft | 116 kts | 223° |
| 2026-05-06 16:51 | 41.12595 | -71.85027 | 1464 ft | 120 kts | 224° |
| 2026-05-06 16:51 | 41.12024 | -71.85852 | 1215 ft | 120 kts | 224° |
| 2026-05-06 16:52 | 41.11478 | -71.86638 | 944 ft | 113 kts | 224° |
| 2026-05-06 16:52 | 41.10948 | -71.87389 | 798 ft | 110 kts | 224° |
| 2026-05-06 16:52 | 41.10407 | -71.88153 | 742 ft | 116 kts | 224° |
| 2026-05-06 16:52 | 41.09831 | -71.88968 | 577 ft | 125 kts | 223° |
| 2026-05-06 16:53 | 41.09240 | -71.89850 | 443 ft | 129 kts | 226° |
| 2026-05-06 16:53 | 41.08626 | -71.90726 | 256 ft | 125 kts | 221° |
| 2026-05-06 16:53 | 41.08022 | -71.91544 | 70 ft | 127 kts | 223° |
| 2026-05-06 16:53 | 41.07428 | -71.92388 | 377 ft | 121 kts | 221° |
| 2026-05-06 16:54 | 41.06840 | -71.93232 | 786 ft | 135 kts | 221° |
| 2026-05-06 16:54 | 41.05984 | -71.93800 | 1207 ft | 148 kts | 188° |
| 2026-05-06 16:54 | 41.04904 | -71.93711 | 1619 ft | 168 kts | 168° |
| 2026-05-06 16:54 | 41.03811 | -71.92978 | 2068 ft | 189 kts | 140° |
| 2026-05-06 16:55 | 41.03150 | -71.91402 | 2457 ft | 212 kts | 105° |
| 2026-05-06 16:55 | 41.03328 | -71.89393 | 2511 ft | 233 kts | 66° |
| 2026-05-06 16:55 | 41.04419 | -71.87771 | 2505 ft | 243 kts | 36° |
| 2026-05-06 16:55 | 41.05847 | -71.86507 | 2499 ft | 249 kts | 38° |
| 2026-05-06 16:56 | 41.07156 | -71.84987 | 2499 ft | 251 kts | 46° |
| 2026-05-06 16:56 | 41.08402 | -71.83357 | 2499 ft | 249 kts | 46° |
| 2026-05-06 16:56 | 41.09630 | -71.81739 | 2502 ft | 249 kts | 46° |
| 2026-05-06 16:56 | 41.10872 | -71.80109 | 2438 ft | 256 kts | 46° |
| 2026-05-06 16:57 | 41.12136 | -71.78454 | 2105 ft | 260 kts | 46° |
| 2026-05-06 16:57 | 41.13438 | -71.76747 | 1729 ft | 263 kts | 46° |
| 2026-05-06 16:57 | 41.14729 | -71.75053 | 1586 ft | 254 kts | 46° |
| 2026-05-06 16:57 | 41.15944 | -71.73461 | 1598 ft | 240 kts | 46° |
| 2026-05-06 16:58 | 41.17249 | -71.72187 | 1587 ft | 227 kts | 18° |
| 2026-05-06 16:58 | 41.18734 | -71.71959 | 1601 ft | 203 kts | 338° |
| 2026-05-06 16:58 | 41.19791 | -71.72817 | 1598 ft | 164 kts | 288° |
| 2026-05-06 16:58 | 41.19891 | -71.74188 | 1606 ft | 149 kts | 241° |
| 2026-05-06 16:59 | 41.19356 | -71.75316 | 1594 ft | 142 kts | 230° |
| 2026-05-06 16:59 | 41.18781 | -71.76329 | 1596 ft | 134 kts | 226° |
| 2026-05-06 16:59 | 41.18172 | -71.77255 | 1605 ft | 130 kts | 223° |
| 2026-05-06 16:59 | 41.17542 | -71.78135 | 1602 ft | 136 kts | 223° |
| 2026-05-06 17:00 | 41.16877 | -71.79069 | 1612 ft | 143 kts | 223° |
| 2026-05-06 17:00 | 41.16212 | -71.80020 | 1595 ft | 139 kts | 224° |
| 2026-05-06 17:00 | 41.15541 | -71.80967 | 1593 ft | 142 kts | 223° |
| 2026-05-06 17:00 | 41.14848 | -71.81931 | 1624 ft | 141 kts | 223° |
| 2026-05-06 17:01 | 41.14207 | -71.82825 | 1581 ft | 129 kts | 224° |
| 2026-05-06 17:01 | 41.13637 | -71.83630 | 1602 ft | 111 kts | 222° |
| 2026-05-06 17:01 | 41.13120 | -71.84359 | 1585 ft | 109 kts | 223° |
| 2026-05-06 17:01 | 41.12631 | -71.85055 | 1469 ft | 98 kts | 223° |
| 2026-05-06 17:02 | 41.12145 | -71.85744 | 1024 ft | 108 kts | 223° |
| 2026-05-06 17:02 | 41.11629 | -71.86476 | 719 ft | 108 kts | 223° |
| 2026-05-06 17:02 | 41.11115 | -71.87212 | 562 ft | 109 kts | 223° |
| 2026-05-06 17:02 | 41.10600 | -71.87936 | 592 ft | 115 kts | 223° |
| 2026-05-06 17:03 | 41.10016 | -71.88757 | 628 ft | 126 kts | 222° |
| 2026-05-06 17:03 | 41.09414 | -71.89605 | 415 ft | 124 kts | 223° |
| 2026-05-06 17:03 | 41.08823 | -71.90428 | 197 ft | 123 kts | 221° |
| 2026-05-06 17:03 | 41.08210 | -71.91277 | 87 ft | 130 kts | 224° |
| 2026-05-06 17:04 | 41.07599 | -71.92133 | 12 ft | 115 kts | 225° |
| 2026-05-06 17:04 | 41.07323 | -71.92596 | 11 ft | 15 kts | 326° |
| 2026-05-06 17:04 | 41.07331 | -71.92552 | 11 ft | 3 kts | 104° |
| 2026-05-06 17:04 | 41.07321 | -71.92505 | 11 ft | 8 kts | 101° |
| 2026-05-06 17:05 | 41.07320 | -71.92484 | 11 ft | 1 kts | 93° |
| 2026-05-06 17:05 | 41.07320 | -71.92474 | 11 ft | 0 kts | 88° |
| 2026-05-06 17:05 | 41.07320 | -71.92469 | 11 ft | 0 kts | 85° |
| 2026-05-06 17:05 | 41.07323 | -71.92460 | 11 ft | 0 kts | 58° |